createdAt,value
2018-11-07T00:00:52.974Z,28.77
2018-11-07T00:03:26.974Z,57.23
2018-11-07T00:06:01.031Z,34.03
2018-11-07T00:08:35.259Z,35.73
2018-11-07T00:11:09.265Z,37.73
2018-11-07T00:13:43.275Z,26.67
2018-11-07T00:16:17.533Z,36.03
2018-11-07T00:18:51.499Z,21.50
2018-11-07T00:21:25.656Z,22.83
2018-11-07T00:23:59.634Z,31.33
2018-11-07T00:26:33.816Z,44.77
2018-11-07T00:29:07.853Z,55.37
2018-11-07T00:31:41.897Z,19.57
2018-11-07T00:34:15.943Z,29.27
2018-11-07T00:36:50.082Z,20.30
2018-11-07T00:39:24.113Z,20.60
2018-11-07T00:41:58.229Z,19.60
2018-11-07T00:44:32.301Z,19.23
2018-11-07T00:47:06.456Z,36.00
2018-11-07T00:49:40.444Z,21.30
2018-11-07T00:52:14.554Z,15.20
2018-11-07T00:54:48.563Z,20.77
2018-11-07T00:57:22.686Z,17.97
2018-11-07T00:59:56.659Z,18.47
2018-11-07T01:02:30.769Z,18.30
2018-11-07T01:05:04.826Z,14.97
2018-11-07T01:07:38.831Z,40.73
2018-11-07T01:10:13.069Z,15.47
2018-11-07T01:12:47.123Z,18.70
2018-11-07T01:15:21.164Z,18.83
2018-11-07T01:17:55.167Z,17.03
2018-11-07T01:20:29.135Z,36.37
2018-11-07T01:23:03.208Z,21.70
2018-11-07T01:25:37.193Z,19.00
2018-11-07T01:28:11.415Z,22.67
2018-11-07T01:30:45.451Z,34.63
2018-11-07T01:33:19.632Z,35.00
2018-11-07T01:35:53.681Z,23.53
2018-11-07T01:38:27.786Z,29.60
2018-11-07T01:41:01.847Z,33.27
2018-11-07T01:43:35.855Z,20.53
2018-11-07T01:46:09.878Z,21.83
2018-11-07T01:48:44.026Z,22.03
2018-11-07T01:51:18.106Z,27.43
2018-11-07T01:53:52.399Z,19.60
2018-11-07T01:56:26.404Z,25.57
2018-11-07T01:59:00.513Z,36.90
2018-11-07T02:01:34.498Z,39.53
2018-11-07T02:04:08.632Z,29.23
2018-11-07T02:06:42.660Z,29.10
2018-11-07T02:09:16.722Z,26.03
2018-11-07T02:11:50.741Z,31.57
2018-11-07T02:14:24.752Z,23.67
2018-11-07T02:16:58.728Z,22.30
2018-11-07T02:19:32.740Z,23.17
2018-11-07T02:22:06.775Z,28.10
2018-11-07T02:24:40.756Z,22.77
2018-11-07T02:27:14.807Z,34.10
2018-11-07T02:29:48.865Z,25.60
2018-11-07T02:32:22.845Z,24.20
2018-11-07T02:34:56.993Z,21.93
2018-11-07T02:37:30.956Z,19.77
2018-11-07T02:40:05.267Z,19.97
2018-11-07T02:42:39.477Z,28.43
2018-11-07T02:45:13.747Z,21.30
2018-11-07T02:47:47.713Z,52.77
2018-11-07T02:50:21.914Z,70.00
2018-11-07T02:52:55.880Z,31.70
2018-11-07T02:55:29.938Z,33.50
2018-11-07T02:58:03.931Z,26.57
2018-11-07T03:00:38.047Z,32.80
2018-11-07T03:03:12.017Z,24.70
2018-11-07T03:05:46.022Z,22.17
2018-11-07T03:08:20.023Z,25.00
2018-11-07T03:10:54.008Z,18.13
2018-11-07T03:13:28.056Z,19.57
2018-11-07T03:16:02.151Z,17.30
2018-11-07T03:18:36.103Z,21.50
2018-11-07T03:21:10.379Z,24.43
2018-11-07T03:23:44.330Z,24.03
2018-11-07T03:26:18.571Z,22.17
2018-11-07T03:28:52.552Z,21.00
2018-11-07T03:31:26.643Z,20.97
2018-11-07T03:34:00.688Z,24.90
2018-11-07T03:36:34.873Z,20.47
2018-11-07T03:39:10.780Z,23.43
2018-11-07T03:41:44.960Z,31.37
2018-11-07T03:44:18.915Z,39.63
2018-11-07T03:46:52.920Z,22.17
2018-11-07T03:49:26.845Z,23.00
2018-11-07T03:52:00.835Z,23.13
2018-11-07T03:54:34.915Z,20.77
2018-11-07T03:57:09.012Z,21.77
2018-11-07T03:59:42.969Z,24.07
2018-11-07T04:02:17.034Z,29.70
2018-11-07T04:04:51.080Z,64.77
2018-11-07T04:07:25.145Z,22.97
2018-11-07T04:09:59.126Z,23.37
2018-11-07T04:12:33.108Z,58.50
2018-11-07T04:15:08.047Z,32.37
2018-11-07T04:17:42.147Z,24.13
2018-11-07T04:20:16.302Z,20.50
2018-11-07T04:22:51.312Z,55.53
2018-11-07T04:25:25.395Z,84.40
2018-11-07T04:27:59.482Z,37.80
2018-11-07T04:30:33.532Z,30.67
2018-11-07T04:33:07.694Z,33.23
2018-11-07T04:35:41.660Z,65.73
2018-11-07T04:38:15.712Z,26.23
2018-11-07T04:40:49.770Z,25.93
2018-11-07T04:43:23.819Z,22.90
2018-11-07T04:45:57.778Z,23.07
2018-11-07T04:48:31.790Z,26.57
2018-11-07T04:51:06.318Z,22.27
2018-11-07T04:53:40.441Z,23.23
2018-11-07T04:56:14.406Z,19.93
2018-11-07T04:58:48.412Z,21.43
2018-11-07T05:01:22.393Z,20.07
2018-11-07T05:03:56.662Z,19.73
2018-11-07T05:06:30.657Z,21.80
2018-11-07T05:09:05.183Z,22.03
2018-11-07T05:11:39.134Z,21.83
2018-11-07T05:14:13.223Z,22.73
2018-11-07T05:16:47.247Z,22.30
2018-11-07T05:19:21.229Z,20.50
2018-11-07T05:21:55.296Z,18.97
2018-11-07T05:24:29.389Z,19.60
2018-11-07T05:27:03.400Z,22.20
2018-11-07T05:29:37.392Z,20.00
2018-11-07T05:32:11.374Z,21.80
2018-11-07T05:34:45.390Z,18.63
2018-11-07T05:37:19.388Z,38.27
2018-11-07T05:39:53.388Z,19.93
2018-11-07T05:42:27.347Z,21.67
2018-11-07T05:45:01.335Z,18.17
2018-11-07T05:47:35.305Z,19.70
2018-11-07T05:50:10.249Z,22.47
2018-11-07T05:52:44.173Z,24.13
2018-11-07T05:55:18.325Z,21.57
2018-11-07T05:57:52.235Z,21.73
2018-11-07T06:00:26.258Z,20.87
2018-11-07T06:03:00.210Z,20.20
2018-11-07T06:05:34.205Z,21.10
2018-11-07T06:08:08.150Z,18.57
2018-11-07T06:10:42.261Z,25.93
2018-11-07T06:13:16.201Z,21.37
2018-11-07T06:15:50.279Z,18.67
2018-11-07T06:18:24.216Z,19.67
2018-11-07T06:20:58.394Z,18.23
2018-11-07T06:23:32.434Z,20.50
2018-11-07T06:26:06.548Z,17.27
2018-11-07T06:28:40.497Z,18.37
2018-11-07T06:32:17.771Z,18.50
2018-11-07T06:34:52.105Z,17.90
2018-11-07T06:37:26.114Z,15.57
2018-11-07T06:40:00.088Z,15.93
2018-11-07T06:42:34.080Z,16.80
2018-11-07T06:45:08.631Z,20.87
2018-11-07T06:47:48.830Z,17.97
2018-11-07T06:50:22.834Z,18.27
2018-11-07T06:52:56.886Z,16.63
2018-11-07T06:55:30.849Z,16.37
2018-11-07T06:58:04.945Z,18.43
2018-11-07T07:00:38.927Z,15.70
2018-11-07T07:03:12.922Z,17.60
2018-11-07T07:05:46.889Z,15.73
2018-11-07T07:08:21.860Z,16.77
2018-11-07T07:10:55.892Z,16.47
2018-11-07T07:13:29.987Z,15.90
2018-11-07T07:16:03.949Z,16.50
2018-11-07T07:18:38.007Z,16.97
2018-11-07T07:21:11.968Z,16.53
2018-11-07T07:23:45.945Z,17.23
2018-11-07T07:26:19.906Z,15.70
2018-11-07T07:28:54.014Z,16.27
2018-11-07T07:31:27.965Z,17.03
2018-11-07T07:34:02.038Z,18.90
2018-11-07T07:36:36.082Z,18.90
2018-11-07T07:39:10.618Z,17.80
2018-11-07T07:41:44.589Z,18.80
2018-11-07T07:44:18.574Z,16.80
2018-11-07T07:46:52.526Z,17.17
2018-11-07T07:49:26.657Z,16.00
2018-11-07T07:52:00.586Z,17.07
2018-11-07T07:54:34.686Z,23.07
2018-11-07T07:57:08.712Z,16.90
2018-11-07T07:59:42.684Z,16.57
2018-11-07T08:02:16.658Z,17.37
2018-11-07T08:04:50.667Z,18.37
2018-11-07T08:07:24.633Z,17.07
2018-11-07T08:09:58.958Z,15.93
2018-11-07T08:12:32.922Z,16.20
2018-11-07T08:15:07.564Z,20.00
2018-11-07T08:17:42.596Z,17.63
2018-11-07T08:20:17.644Z,18.93
2018-11-07T08:22:51.601Z,17.13
2018-11-07T08:25:25.608Z,17.67
2018-11-07T08:28:00.481Z,18.40
2018-11-07T08:30:34.483Z,20.13
2018-11-07T08:33:08.637Z,26.17
2018-11-07T08:35:42.699Z,19.53
2018-11-07T08:38:16.634Z,17.20
2018-11-07T08:40:50.683Z,20.60
2018-11-07T08:43:24.622Z,20.17
2018-11-07T08:45:58.624Z,20.30
2018-11-07T08:48:32.582Z,22.17
2018-11-07T08:51:06.676Z,20.90
2018-11-07T08:53:40.648Z,18.20
2018-11-07T08:56:14.647Z,19.57
2018-11-07T08:58:48.631Z,18.63
2018-11-07T09:01:22.642Z,21.63
2018-11-07T09:03:56.697Z,21.73
2018-11-07T09:06:30.688Z,18.67
2018-11-07T09:09:06.568Z,25.17
2018-11-07T09:11:40.648Z,23.53
2018-11-07T09:14:14.618Z,33.90
2018-11-07T09:16:48.648Z,21.50
2018-11-07T09:19:22.606Z,23.53
2018-11-07T09:21:56.613Z,21.50
2018-11-07T09:24:30.646Z,21.63
2018-11-07T09:27:05.129Z,19.70
2018-11-07T09:29:39.126Z,22.67
2018-11-07T09:32:13.169Z,23.90
2018-11-07T09:34:47.474Z,24.80
2018-11-07T09:37:21.501Z,23.60
2018-11-07T09:39:55.469Z,22.87
2018-11-07T09:42:29.465Z,23.90
2018-11-07T09:45:03.469Z,24.90
2018-11-07T09:47:37.780Z,24.90
2018-11-07T09:50:12.482Z,21.43
2018-11-07T09:52:46.579Z,18.93
2018-11-07T09:55:21.433Z,22.43
2018-11-07T09:57:55.477Z,19.93
2018-11-07T10:00:29.438Z,21.63
2018-11-07T10:03:03.540Z,21.42
2018-11-07T10:05:37.592Z,24.07
2018-11-07T10:08:11.541Z,20.68
2018-11-07T10:10:45.564Z,18.62
2018-11-07T10:13:19.657Z,20.05
2018-11-07T10:15:53.606Z,19.42
2018-11-07T10:18:27.706Z,20.05
2018-11-07T10:21:01.680Z,20.30
2018-11-07T10:23:35.810Z,18.20
2018-11-07T10:26:09.775Z,18.20
2018-11-07T10:28:44.088Z,18.65
2018-11-07T10:31:17.847Z,18.15
2018-11-07T10:33:51.972Z,18.12
2018-11-07T10:36:25.961Z,17.98
2018-11-07T10:39:00.115Z,18.82
2018-11-07T10:41:33.986Z,16.90
2018-11-07T10:44:08.320Z,20.00
2018-11-07T10:46:42.306Z,15.30
2018-11-07T10:49:16.315Z,15.68
2018-11-07T10:51:50.286Z,15.08
2018-11-07T10:54:24.377Z,13.90
2018-11-07T10:56:58.379Z,14.40
2018-11-07T10:59:32.504Z,15.50
2018-11-07T11:02:11.605Z,13.72
2018-11-07T11:04:45.617Z,11.63
2018-11-07T11:07:19.644Z,10.65
2018-11-07T11:09:53.658Z,10.70
2018-11-07T11:12:27.732Z,8.88
2018-11-07T11:15:01.911Z,9.30
2018-11-07T11:17:36.123Z,10.15
2018-11-07T11:20:12.429Z,9.83
2018-11-07T11:22:46.401Z,8.60
2018-11-07T11:25:20.402Z,8.20
2018-11-07T11:27:54.348Z,7.90
2018-11-07T11:30:28.343Z,7.47
2018-11-07T11:33:02.290Z,6.60
2018-11-07T11:35:36.378Z,6.58
2018-11-07T11:38:10.326Z,5.97
2018-11-07T11:40:44.297Z,5.78
2018-11-07T11:43:18.268Z,6.12
2018-11-07T11:45:52.437Z,6.40
2018-11-07T11:48:26.386Z,5.85
2018-11-07T11:51:00.491Z,6.05
2018-11-07T11:53:34.454Z,5.87
2018-11-07T11:56:08.459Z,5.25
2018-11-07T11:58:42.477Z,5.42
2018-11-07T12:01:16.542Z,5.75
2018-11-07T12:03:50.476Z,5.47
2018-11-07T12:06:24.586Z,5.80
2018-11-07T12:08:58.648Z,5.50
2018-11-07T12:11:32.711Z,5.15
2018-11-07T12:14:06.657Z,5.90
2018-11-07T12:16:40.758Z,5.47
2018-11-07T12:19:15.324Z,5.58
2018-11-07T12:21:49.706Z,5.37
2018-11-07T12:24:23.649Z,5.35
2018-11-07T12:26:57.758Z,5.53
2018-11-07T12:29:31.613Z,5.30
2018-11-07T12:32:05.698Z,5.03
2018-11-07T12:34:39.648Z,5.40
2018-11-07T12:37:13.637Z,4.75
2018-11-07T12:39:47.627Z,5.05
2018-11-07T12:42:21.709Z,5.00
2018-11-07T12:44:55.749Z,5.05
2018-11-07T12:47:29.792Z,4.67
2018-11-07T12:50:03.920Z,4.45
2018-11-07T12:52:37.925Z,4.83
2018-11-07T12:55:12.749Z,4.53
2018-11-07T12:57:47.116Z,3.87
2018-11-07T13:00:23.522Z,4.67
2018-11-07T13:02:57.675Z,3.67
2018-11-07T13:05:31.747Z,3.95
2018-11-07T13:08:06.154Z,3.60
2018-11-07T13:10:40.143Z,3.80
2018-11-07T13:13:14.185Z,4.28
2018-11-07T13:15:48.171Z,4.22
2018-11-07T13:18:22.192Z,3.70
2018-11-07T13:20:56.181Z,3.85
2018-11-07T13:23:30.170Z,3.60
2018-11-07T13:26:04.203Z,3.52
2018-11-07T13:28:38.221Z,3.87
2018-11-07T13:31:12.193Z,3.80
2018-11-07T13:33:46.188Z,3.70
2018-11-07T13:36:20.130Z,3.52
2018-11-07T13:38:54.631Z,3.33
2018-11-07T13:41:28.283Z,3.20
2018-11-07T13:44:02.251Z,3.30
2018-11-07T13:46:36.206Z,3.50
2018-11-07T13:49:10.360Z,3.42
2018-11-07T13:51:44.301Z,3.35
2018-11-07T13:54:18.435Z,3.72
2018-11-07T13:56:52.373Z,3.92
2018-11-07T13:59:26.431Z,3.35
2018-11-07T14:02:00.370Z,3.75
2018-11-07T14:04:34.372Z,4.25
2018-11-07T14:07:08.334Z,3.83
2018-11-07T14:09:42.324Z,3.98
2018-11-07T14:12:16.290Z,4.00
2018-11-07T14:14:50.371Z,3.33
2018-11-07T14:17:24.344Z,3.52
2018-11-07T14:19:58.405Z,3.80
2018-11-07T14:22:32.464Z,3.92
2018-11-07T14:25:07.797Z,3.70
2018-11-07T14:27:41.935Z,3.70
2018-11-07T14:30:18.118Z,4.08
2018-11-07T14:32:55.264Z,3.95
2018-11-07T14:35:29.270Z,3.40
2018-11-07T14:38:03.222Z,4.35
2018-11-07T14:40:37.177Z,3.95
2018-11-07T14:43:11.122Z,4.22
2018-11-07T14:45:45.122Z,3.70
2018-11-07T14:48:19.081Z,4.08
2018-11-07T14:50:53.050Z,4.10
2018-11-07T14:53:27.048Z,3.95
2018-11-07T14:56:01.146Z,4.25
2018-11-07T14:58:35.114Z,4.03
2018-11-07T15:01:09.108Z,4.40
2018-11-07T15:03:43.304Z,3.92
2018-11-07T15:06:17.395Z,3.72
2018-11-07T15:08:54.115Z,4.20
2018-11-07T15:11:28.260Z,4.00
2018-11-07T15:14:02.174Z,4.53
2018-11-07T15:16:36.402Z,4.40
2018-11-07T15:19:10.404Z,4.62
2018-11-07T15:21:44.351Z,4.92
2018-11-07T15:24:18.303Z,5.40
2018-11-07T15:26:52.517Z,5.17
2018-11-07T15:29:26.466Z,5.65
2018-11-07T15:32:00.524Z,7.83
2018-11-07T15:34:34.464Z,6.90
2018-11-07T15:37:09.225Z,6.72
2018-11-07T15:39:43.184Z,7.62
2018-11-07T15:42:17.173Z,8.05
2018-11-07T15:44:51.162Z,7.60
2018-11-07T15:47:25.230Z,8.48
2018-11-07T15:50:04.285Z,7.33
2018-11-07T15:52:38.248Z,5.50
2018-11-07T15:55:12.204Z,6.95
2018-11-07T15:57:46.329Z,6.05
2018-11-07T16:00:20.347Z,6.17
2018-11-07T16:02:54.321Z,6.17
2018-11-07T16:05:28.281Z,6.97
2018-11-07T16:08:02.328Z,6.25
2018-11-07T16:10:36.310Z,6.75
2018-11-07T16:13:10.299Z,6.35
2018-11-07T16:15:44.295Z,5.55
2018-11-07T16:18:18.323Z,6.12
2018-11-07T16:20:52.345Z,7.60
2018-11-07T16:23:26.415Z,7.87
2018-11-07T16:26:00.630Z,8.63
2018-11-07T16:28:34.607Z,8.70
2018-11-07T16:31:08.627Z,10.93
2018-11-07T16:33:42.996Z,9.58
2018-11-07T16:36:16.946Z,8.33
2018-11-07T16:38:50.920Z,8.18
2018-11-07T16:41:25.013Z,6.95
2018-11-07T16:43:58.962Z,6.83
2018-11-07T16:46:32.891Z,6.97
2018-11-07T16:49:07.048Z,7.17
2018-11-07T16:51:40.983Z,8.70
2018-11-07T16:54:19.214Z,6.70
2018-11-07T16:56:53.235Z,7.20
2018-11-07T16:59:27.234Z,7.73
2018-11-07T17:02:01.353Z,7.67
2018-11-07T17:04:35.406Z,8.40
2018-11-07T17:07:09.647Z,7.40
2018-11-07T17:09:43.787Z,7.00
2018-11-07T17:12:17.804Z,8.10
2018-11-07T17:14:51.914Z,7.30
2018-11-07T17:17:25.927Z,6.60
2018-11-07T17:19:59.977Z,8.67
2018-11-07T17:22:37.339Z,7.80
2018-11-07T17:25:14.687Z,7.80
2018-11-07T17:27:50.082Z,9.10
2018-11-07T17:30:25.314Z,8.47
2018-11-07T17:33:00.019Z,6.80
2018-11-07T17:35:34.649Z,6.30
2018-11-07T17:38:09.574Z,5.27
2018-11-07T17:40:44.151Z,6.07
2018-11-07T17:43:18.124Z,5.10
2018-11-07T17:45:52.174Z,6.03
2018-11-07T17:48:26.230Z,5.70
2018-11-07T17:51:00.208Z,6.37
2018-11-07T17:53:34.481Z,6.47
2018-11-07T17:56:08.560Z,7.03
2018-11-07T17:58:42.549Z,6.90
2018-11-07T18:01:16.586Z,7.87
2018-11-07T18:03:50.673Z,7.13
2018-11-07T18:06:24.816Z,6.87
2018-11-07T18:08:58.754Z,5.90
2018-11-07T18:11:32.833Z,5.97
2018-11-07T18:21:11.802Z,6.30
2018-11-07T18:23:45.798Z,6.33
2018-11-07T18:26:19.988Z,6.33
2018-11-07T18:28:54.105Z,6.13
2018-11-07T18:31:28.171Z,6.13
2018-11-07T18:34:02.261Z,6.37
2018-11-07T18:36:36.392Z,6.67
2018-11-07T18:39:11.586Z,6.07
2018-11-07T18:41:45.661Z,6.90
2018-11-07T18:44:20.819Z,4.93
2018-11-07T18:46:54.908Z,6.30
2018-11-07T18:49:29.045Z,6.87
2018-11-07T18:52:03.118Z,7.17
2018-11-07T18:54:37.215Z,13.43
2018-11-07T18:57:11.348Z,13.27
2018-11-07T18:59:47.277Z,16.47
2018-11-07T19:02:21.626Z,7.47
2018-11-07T19:04:55.672Z,8.73
2018-11-07T19:07:29.733Z,12.60
2018-11-07T19:10:03.931Z,15.57
2018-11-07T19:12:38.006Z,8.40
2018-11-07T19:15:13.339Z,4.30
2018-11-07T19:17:48.505Z,4.90
2018-11-07T19:20:22.467Z,7.20
2018-11-07T19:22:56.680Z,10.23
2018-11-07T19:25:30.659Z,7.87
2018-11-07T19:28:04.816Z,9.40
2018-11-07T19:30:39.654Z,9.80
2018-11-07T19:33:13.783Z,10.13
2018-11-07T19:35:48.932Z,9.67
2018-11-07T19:38:23.108Z,10.80
2018-11-07T19:40:57.083Z,13.53
2018-11-07T19:43:31.083Z,12.07
2018-11-07T19:46:05.062Z,10.73
2018-11-07T19:48:39.084Z,9.63
2018-11-07T19:51:13.024Z,8.73
2018-11-07T19:53:47.095Z,9.67
2018-11-07T19:56:21.103Z,7.47
2018-11-07T19:58:55.385Z,7.30
2018-11-07T20:01:29.414Z,7.13
2018-11-07T20:04:03.391Z,5.90
2018-11-07T20:06:37.373Z,5.47
2018-11-07T20:09:11.653Z,5.97
2018-11-07T20:11:45.620Z,6.00
2018-11-07T20:14:19.636Z,5.60
2018-11-07T20:16:53.605Z,6.00
2018-11-07T20:19:27.635Z,5.27
2018-11-07T20:22:01.649Z,6.00
2018-11-07T20:24:35.674Z,5.97
2018-11-07T20:27:09.619Z,5.23
2018-11-07T20:29:43.757Z,6.37
2018-11-07T20:32:17.739Z,6.20
2018-11-07T20:34:52.132Z,6.03
2018-11-07T20:37:26.529Z,5.57
2018-11-07T20:40:00.639Z,7.83
2018-11-07T20:42:34.695Z,6.07
2018-11-07T20:45:11.189Z,6.30
2018-11-07T20:47:46.243Z,5.27
2018-11-07T20:50:21.444Z,5.30
2018-11-07T20:52:57.309Z,5.77
2018-11-07T20:55:31.481Z,5.77
2018-11-07T20:58:05.723Z,5.40
2018-11-07T21:00:42.462Z,4.87
2018-11-07T21:03:16.566Z,5.40
2018-11-07T21:05:50.696Z,4.60
2018-11-07T21:08:26.052Z,5.00
2018-11-07T21:11:01.974Z,6.07
2018-11-07T21:13:37.864Z,6.03
2018-11-07T21:16:12.037Z,7.87
2018-11-07T21:18:46.911Z,10.43
2018-11-07T21:21:21.263Z,9.17
2018-11-07T21:23:55.384Z,8.13
2018-11-07T21:26:29.700Z,7.90
2018-11-07T21:29:04.248Z,7.93
2018-11-07T21:31:38.482Z,10.37
2018-11-07T21:34:12.555Z,7.10
2018-11-07T21:36:46.855Z,5.67
2018-11-07T21:39:21.443Z,6.40
2018-11-07T21:41:55.747Z,6.73
2018-11-07T21:44:29.720Z,5.60
2018-11-07T21:47:03.872Z,5.43
2018-11-07T21:49:38.701Z,5.00
2018-11-07T21:52:12.970Z,5.57
2018-11-07T21:54:47.186Z,5.87
2018-11-07T21:57:21.527Z,5.63
2018-11-07T21:59:55.517Z,11.77
2018-11-07T22:02:29.583Z,8.60
2018-11-07T22:05:03.642Z,7.40
2018-11-07T22:07:37.868Z,5.70
2018-11-07T22:10:12.978Z,6.30
2018-11-07T22:12:47.057Z,5.63
2018-11-07T22:15:21.106Z,5.30
2018-11-07T22:17:55.279Z,5.50
2018-11-07T22:20:29.240Z,4.77
2018-11-07T22:23:03.250Z,5.40
2018-11-07T22:25:37.195Z,6.40
2018-11-07T22:28:11.343Z,5.30
2018-11-07T22:30:46.137Z,5.13
2018-11-07T22:33:20.262Z,5.83
2018-11-07T22:35:54.331Z,5.43
2018-11-07T22:38:28.404Z,5.70
2018-11-07T22:41:02.358Z,5.33
2018-11-07T22:44:39.633Z,5.53
2018-11-07T22:47:13.631Z,7.20
2018-11-07T22:49:47.647Z,5.73
2018-11-07T22:52:21.666Z,5.40
2018-11-07T22:54:55.760Z,7.10
2018-11-07T22:57:29.778Z,6.97
2018-11-07T23:00:03.961Z,5.73
2018-11-07T23:02:38.003Z,7.40
2018-11-07T23:05:12.108Z,7.17
2018-11-07T23:07:46.124Z,7.50
2018-11-07T23:10:20.250Z,5.80
2018-11-07T23:12:54.256Z,6.47
2018-11-07T23:15:33.271Z,5.63
2018-11-07T23:18:07.306Z,7.53
2018-11-07T23:20:41.345Z,6.87
2018-11-07T23:23:15.657Z,7.00
2018-11-07T23:25:49.737Z,8.23
2018-11-07T23:28:23.750Z,9.20
2018-11-07T23:30:57.864Z,7.93
2018-11-07T23:33:31.998Z,8.63
2018-11-07T23:36:06.243Z,6.90
2018-11-07T23:38:40.322Z,5.60
2018-11-07T23:41:14.469Z,7.40
2018-11-07T23:43:48.504Z,4.83
2018-11-07T23:46:22.734Z,5.77
2018-11-07T23:48:56.755Z,5.53
2018-11-07T23:51:31.025Z,5.90
2018-11-07T23:54:05.218Z,5.73
2018-11-07T23:56:39.243Z,4.63
2018-11-07T23:59:13.305Z,3.90
